sensor_id;sensor_type;location;lat;lon;timestamp;P1;durP1;ratioP1;P2;durP2;ratioP2
11394;SDS011;5753;54.402;10.220;2024-02-26T00:01:15;21.45;;;14.20;;
11394;SDS011;5753;54.402;10.220;2024-02-26T00:03:42;20.40;;;12.65;;
11394;SDS011;5753;54.402;10.220;2024-02-26T00:06:16;23.25;;;13.32;;
11394;SDS011;5753;54.402;10.220;2024-02-26T00:08:45;19.00;;;12.25;;
11394;SDS011;5753;54.402;10.220;2024-02-26T00:11:11;18.70;;;10.70;;
11394;SDS011;5753;54.402;10.220;2024-02-26T00:13:39;22.25;;;12.80;;
11394;SDS011;5753;54.402;10.220;2024-02-26T00:16:06;18.05;;;13.25;;
11394;SDS011;5753;54.402;10.220;2024-02-26T00:18:33;23.10;;;13.95;;
11394;SDS011;5753;54.402;10.220;2024-02-26T00:20:59;20.92;;;14.82;;
11394;SDS011;5753;54.402;10.220;2024-02-26T00:23:25;20.95;;;13.90;;
11394;SDS011;5753;54.402;10.220;2024-02-26T00:25:55;25.30;;;16.88;;
11394;SDS011;5753;54.402;10.220;2024-02-26T00:28:22;23.40;;;15.63;;
11394;SDS011;5753;54.402;10.220;2024-02-26T00:30:51;25.52;;;14.52;;
11394;SDS011;5753;54.402;10.220;2024-02-26T00:33:22;30.85;;;18.65;;
11394;SDS011;5753;54.402;10.220;2024-02-26T00:35:51;23.30;;;14.90;;
11394;SDS011;5753;54.402;10.220;2024-02-26T00:38:17;48.22;;;18.58;;
11394;SDS011;5753;54.402;10.220;2024-02-26T00:40:44;31.30;;;15.43;;
11394;SDS011;5753;54.402;10.220;2024-02-26T00:43:10;38.72;;;18.25;;
11394;SDS011;5753;54.402;10.220;2024-02-26T00:45:38;33.70;;;17.33;;
11394;SDS011;5753;54.402;10.220;2024-02-26T00:48:06;26.75;;;15.93;;
11394;SDS011;5753;54.402;10.220;2024-02-26T00:50:34;19.70;;;13.85;;
11394;SDS011;5753;54.402;10.220;2024-02-26T00:53:01;25.77;;;14.00;;
11394;SDS011;5753;54.402;10.220;2024-02-26T00:55:38;23.65;;;13.45;;
11394;SDS011;5753;54.402;10.220;2024-02-26T00:58:07;21.05;;;12.43;;
11394;SDS011;5753;54.402;10.220;2024-02-26T01:00:35;23.42;;;14.88;;
11394;SDS011;5753;54.402;10.220;2024-02-26T01:03:03;22.42;;;12.30;;
11394;SDS011;5753;54.402;10.220;2024-02-26T01:05:31;20.35;;;12.75;;
11394;SDS011;5753;54.402;10.220;2024-02-26T01:07:58;19.17;;;13.40;;
11394;SDS011;5753;54.402;10.220;2024-02-26T01:10:26;18.23;;;12.27;;
11394;SDS011;5753;54.402;10.220;2024-02-26T01:12:53;25.30;;;14.90;;
11394;SDS011;5753;54.402;10.220;2024-02-26T01:15:21;23.20;;;12.88;;
11394;SDS011;5753;54.402;10.220;2024-02-26T01:17:50;21.50;;;14.02;;
11394;SDS011;5753;54.402;10.220;2024-02-26T01:20:16;19.42;;;12.07;;
11394;SDS011;5753;54.402;10.220;2024-02-26T01:22:46;19.88;;;14.05;;
11394;SDS011;5753;54.402;10.220;2024-02-26T01:25:17;16.02;;;11.02;;
11394;SDS011;5753;54.402;10.220;2024-02-26T01:27:43;20.30;;;14.02;;
11394;SDS011;5753;54.402;10.220;2024-02-26T01:30:10;22.27;;;13.48;;
11394;SDS011;5753;54.402;10.220;2024-02-26T01:32:38;18.77;;;11.05;;
11394;SDS011;5753;54.402;10.220;2024-02-26T01:35:05;19.88;;;12.73;;
11394;SDS011;5753;54.402;10.220;2024-02-26T01:37:39;21.65;;;12.73;;
11394;SDS011;5753;54.402;10.220;2024-02-26T01:40:08;19.10;;;11.18;;
11394;SDS011;5753;54.402;10.220;2024-02-26T01:42:38;23.80;;;14.73;;
11394;SDS011;5753;54.402;10.220;2024-02-26T01:45:08;21.02;;;12.52;;
11394;SDS011;5753;54.402;10.220;2024-02-26T01:47:51;21.48;;;13.20;;
11394;SDS011;5753;54.402;10.220;2024-02-26T01:50:21;20.52;;;12.98;;
11394;SDS011;5753;54.402;10.220;2024-02-26T01:52:58;26.98;;;13.90;;
11394;SDS011;5753;54.402;10.220;2024-02-26T01:55:24;20.13;;;12.95;;
11394;SDS011;5753;54.402;10.220;2024-02-26T01:57:53;25.48;;;12.75;;
11394;SDS011;5753;54.402;10.220;2024-02-26T02:00:20;20.08;;;12.23;;
11394;SDS011;5753;54.402;10.220;2024-02-26T02:02:51;19.05;;;12.38;;
11394;SDS011;5753;54.402;10.220;2024-02-26T02:05:22;21.95;;;13.20;;
11394;SDS011;5753;54.402;10.220;2024-02-26T02:07:50;22.23;;;14.55;;
11394;SDS011;5753;54.402;10.220;2024-02-26T02:10:20;21.25;;;12.57;;
11394;SDS011;5753;54.402;10.220;2024-02-26T02:12:51;25.17;;;15.05;;
11394;SDS011;5753;54.402;10.220;2024-02-26T02:15:17;27.48;;;15.20;;
11394;SDS011;5753;54.402;10.220;2024-02-26T02:17:45;23.13;;;13.10;;
11394;SDS011;5753;54.402;10.220;2024-02-26T02:20:18;24.02;;;13.50;;
11394;SDS011;5753;54.402;10.220;2024-02-26T02:22:46;23.25;;;14.85;;
11394;SDS011;5753;54.402;10.220;2024-02-26T02:25:14;23.52;;;13.60;;
11394;SDS011;5753;54.402;10.220;2024-02-26T02:27:40;21.75;;;15.02;;
11394;SDS011;5753;54.402;10.220;2024-02-26T02:30:09;19.20;;;11.25;;
11394;SDS011;5753;54.402;10.220;2024-02-26T02:32:41;21.52;;;14.02;;
11394;SDS011;5753;54.402;10.220;2024-02-26T02:35:08;20.70;;;14.93;;
11394;SDS011;5753;54.402;10.220;2024-02-26T02:37:36;21.35;;;14.88;;
11394;SDS011;5753;54.402;10.220;2024-02-26T02:40:04;27.75;;;15.73;;
11394;SDS011;5753;54.402;10.220;2024-02-26T02:42:32;23.17;;;14.82;;
11394;SDS011;5753;54.402;10.220;2024-02-26T02:45:02;18.52;;;12.38;;
11394;SDS011;5753;54.402;10.220;2024-02-26T02:47:28;19.15;;;11.35;;
11394;SDS011;5753;54.402;10.220;2024-02-26T02:50:00;21.02;;;11.73;;
11394;SDS011;5753;54.402;10.220;2024-02-26T02:52:30;20.67;;;12.40;;
11394;SDS011;5753;54.402;10.220;2024-02-26T02:54:59;20.05;;;11.82;;
11394;SDS011;5753;54.402;10.220;2024-02-26T02:57:26;25.77;;;12.18;;
11394;SDS011;5753;54.402;10.220;2024-02-26T02:59:54;17.48;;;11.32;;
11394;SDS011;5753;54.402;10.220;2024-02-26T03:02:21;24.17;;;13.52;;
11394;SDS011;5753;54.402;10.220;2024-02-26T03:04:51;20.98;;;12.45;;
11394;SDS011;5753;54.402;10.220;2024-02-26T03:07:20;23.90;;;15.38;;
11394;SDS011;5753;54.402;10.220;2024-02-26T03:09:47;24.75;;;14.13;;
11394;SDS011;5753;54.402;10.220;2024-02-26T03:12:15;23.83;;;13.95;;
11394;SDS011;5753;54.402;10.220;2024-02-26T03:14:44;30.65;;;15.02;;
11394;SDS011;5753;54.402;10.220;2024-02-26T03:17:10;25.30;;;14.75;;
11394;SDS011;5753;54.402;10.220;2024-02-26T03:19:38;24.65;;;13.45;;
11394;SDS011;5753;54.402;10.220;2024-02-26T03:22:04;28.15;;;18.00;;
11394;SDS011;5753;54.402;10.220;2024-02-26T03:24:34;23.20;;;13.77;;
11394;SDS011;5753;54.402;10.220;2024-02-26T03:27:01;21.88;;;14.23;;
11394;SDS011;5753;54.402;10.220;2024-02-26T03:29:37;20.83;;;13.88;;
11394;SDS011;5753;54.402;10.220;2024-02-26T03:32:14;23.00;;;12.45;;
11394;SDS011;5753;54.402;10.220;2024-02-26T03:34:42;33.45;;;12.52;;
11394;SDS011;5753;54.402;10.220;2024-02-26T03:37:09;22.38;;;11.18;;
11394;SDS011;5753;54.402;10.220;2024-02-26T03:39:36;23.55;;;12.65;;
11394;SDS011;5753;54.402;10.220;2024-02-26T03:42:04;17.48;;;9.73;;
11394;SDS011;5753;54.402;10.220;2024-02-26T03:44:31;42.33;;;14.27;;
11394;SDS011;5753;54.402;10.220;2024-02-26T03:46:59;24.83;;;9.40;;
11394;SDS011;5753;54.402;10.220;2024-02-26T03:49:28;29.15;;;12.43;;
11394;SDS011;5753;54.402;10.220;2024-02-26T03:52:00;33.35;;;13.07;;
11394;SDS011;5753;54.402;10.220;2024-02-26T03:54:33;22.15;;;11.35;;
11394;SDS011;5753;54.402;10.220;2024-02-26T03:57:00;28.00;;;11.05;;
11394;SDS011;5753;54.402;10.220;2024-02-26T03:59:27;16.23;;;9.00;;
11394;SDS011;5753;54.402;10.220;2024-02-26T04:01:55;20.25;;;12.20;;
11394;SDS011;5753;54.402;10.220;2024-02-26T04:04:25;13.75;;;9.75;;
11394;SDS011;5753;54.402;10.220;2024-02-26T04:06:52;16.95;;;10.27;;
11394;SDS011;5753;54.402;10.220;2024-02-26T04:09:19;20.80;;;13.00;;
11394;SDS011;5753;54.402;10.220;2024-02-26T04:11:46;18.25;;;11.63;;
11394;SDS011;5753;54.402;10.220;2024-02-26T04:14:14;17.35;;;9.55;;
11394;SDS011;5753;54.402;10.220;2024-02-26T04:16:44;14.45;;;9.05;;
11394;SDS011;5753;54.402;10.220;2024-02-26T04:19:12;20.27;;;10.00;;
11394;SDS011;5753;54.402;10.220;2024-02-26T04:21:46;20.60;;;9.45;;
11394;SDS011;5753;54.402;10.220;2024-02-26T04:24:14;14.15;;;9.70;;
11394;SDS011;5753;54.402;10.220;2024-02-26T04:26:42;17.02;;;12.25;;
11394;SDS011;5753;54.402;10.220;2024-02-26T04:29:09;17.30;;;10.48;;
11394;SDS011;5753;54.402;10.220;2024-02-26T04:31:37;16.80;;;10.85;;
11394;SDS011;5753;54.402;10.220;2024-02-26T04:34:07;16.67;;;9.90;;
11394;SDS011;5753;54.402;10.220;2024-02-26T04:36:40;20.83;;;14.35;;
11394;SDS011;5753;54.402;10.220;2024-02-26T04:39:08;18.35;;;8.63;;
11394;SDS011;5753;54.402;10.220;2024-02-26T04:41:36;18.25;;;9.52;;
11394;SDS011;5753;54.402;10.220;2024-02-26T04:44:03;24.50;;;12.35;;
11394;SDS011;5753;54.402;10.220;2024-02-26T04:46:31;17.75;;;11.93;;
11394;SDS011;5753;54.402;10.220;2024-02-26T04:48:59;22.35;;;9.02;;
11394;SDS011;5753;54.402;10.220;2024-02-26T04:51:27;15.27;;;9.18;;
11394;SDS011;5753;54.402;10.220;2024-02-26T04:53:54;13.85;;;10.25;;
11394;SDS011;5753;54.402;10.220;2024-02-26T04:56:26;22.98;;;11.40;;
11394;SDS011;5753;54.402;10.220;2024-02-26T04:58:53;22.65;;;11.15;;
11394;SDS011;5753;54.402;10.220;2024-02-26T05:01:21;15.45;;;9.95;;
11394;SDS011;5753;54.402;10.220;2024-02-26T05:03:51;16.38;;;9.00;;
11394;SDS011;5753;54.402;10.220;2024-02-26T05:06:19;17.40;;;10.68;;
11394;SDS011;5753;54.402;10.220;2024-02-26T05:08:45;23.58;;;14.77;;
11394;SDS011;5753;54.402;10.220;2024-02-26T05:11:15;13.85;;;9.70;;
11394;SDS011;5753;54.402;10.220;2024-02-26T05:13:44;14.68;;;9.30;;
11394;SDS011;5753;54.402;10.220;2024-02-26T05:16:11;18.13;;;10.95;;
11394;SDS011;5753;54.402;10.220;2024-02-26T05:18:39;17.95;;;8.85;;
11394;SDS011;5753;54.402;10.220;2024-02-26T05:21:07;12.65;;;9.35;;
11394;SDS011;5753;54.402;10.220;2024-02-26T05:23:35;19.35;;;9.68;;
11394;SDS011;5753;54.402;10.220;2024-02-26T05:26:02;18.83;;;9.95;;
11394;SDS011;5753;54.402;10.220;2024-02-26T05:28:30;15.93;;;10.40;;
11394;SDS011;5753;54.402;10.220;2024-02-26T05:30:57;13.25;;;8.82;;
11394;SDS011;5753;54.402;10.220;2024-02-26T05:33:25;16.55;;;9.27;;
11394;SDS011;5753;54.402;10.220;2024-02-26T05:35:54;14.43;;;10.63;;
11394;SDS011;5753;54.402;10.220;2024-02-26T05:38:22;14.23;;;8.55;;
11394;SDS011;5753;54.402;10.220;2024-02-26T05:40:48;15.23;;;6.95;;
11394;SDS011;5753;54.402;10.220;2024-02-26T05:43:18;14.90;;;9.05;;
11394;SDS011;5753;54.402;10.220;2024-02-26T05:45:45;22.17;;;8.80;;
11394;SDS011;5753;54.402;10.220;2024-02-26T05:48:11;19.52;;;10.73;;
11394;SDS011;5753;54.402;10.220;2024-02-26T05:50:39;14.35;;;8.82;;
11394;SDS011;5753;54.402;10.220;2024-02-26T05:53:08;15.98;;;12.02;;
11394;SDS011;5753;54.402;10.220;2024-02-26T05:55:36;14.32;;;9.93;;
11394;SDS011;5753;54.402;10.220;2024-02-26T05:58:03;14.82;;;9.77;;
11394;SDS011;5753;54.402;10.220;2024-02-26T06:00:31;19.48;;;10.18;;
11394;SDS011;5753;54.402;10.220;2024-02-26T06:02:57;12.63;;;6.95;;
11394;SDS011;5753;54.402;10.220;2024-02-26T06:05:25;14.00;;;9.15;;
11394;SDS011;5753;54.402;10.220;2024-02-26T06:07:55;12.48;;;8.15;;
11394;SDS011;5753;54.402;10.220;2024-02-26T06:10:22;16.70;;;10.18;;
11394;SDS011;5753;54.402;10.220;2024-02-26T06:12:50;15.38;;;7.22;;
11394;SDS011;5753;54.402;10.220;2024-02-26T06:15:16;15.35;;;8.32;;
11394;SDS011;5753;54.402;10.220;2024-02-26T06:17:44;14.38;;;8.88;;
11394;SDS011;5753;54.402;10.220;2024-02-26T06:20:10;20.17;;;10.52;;
11394;SDS011;5753;54.402;10.220;2024-02-26T06:22:40;13.95;;;8.93;;
11394;SDS011;5753;54.402;10.220;2024-02-26T06:25:11;17.67;;;9.32;;
11394;SDS011;5753;54.402;10.220;2024-02-26T06:27:38;21.15;;;10.40;;
11394;SDS011;5753;54.402;10.220;2024-02-26T06:30:06;16.17;;;11.85;;
11394;SDS011;5753;54.402;10.220;2024-02-26T06:32:34;30.10;;;12.25;;
11394;SDS011;5753;54.402;10.220;2024-02-26T06:35:01;47.95;;;11.77;;
11394;SDS011;5753;54.402;10.220;2024-02-26T06:37:34;34.92;;;11.27;;
11394;SDS011;5753;54.402;10.220;2024-02-26T06:40:01;70.22;;;15.27;;
11394;SDS011;5753;54.402;10.220;2024-02-26T06:42:32;165.48;;;24.63;;
11394;SDS011;5753;54.402;10.220;2024-02-26T06:45:00;76.50;;;14.45;;
11394;SDS011;5753;54.402;10.220;2024-02-26T06:47:30;84.45;;;16.70;;
11394;SDS011;5753;54.402;10.220;2024-02-26T06:49:58;104.97;;;14.45;;
11394;SDS011;5753;54.402;10.220;2024-02-26T06:52:26;56.85;;;9.93;;
11394;SDS011;5753;54.402;10.220;2024-02-26T06:54:53;57.88;;;10.82;;
11394;SDS011;5753;54.402;10.220;2024-02-26T06:57:22;68.82;;;13.45;;
11394;SDS011;5753;54.402;10.220;2024-02-26T06:59:50;95.75;;;14.77;;
11394;SDS011;5753;54.402;10.220;2024-02-26T07:02:17;84.72;;;13.70;;
11394;SDS011;5753;54.402;10.220;2024-02-26T07:04:45;43.20;;;10.35;;
11394;SDS011;5753;54.402;10.220;2024-02-26T07:07:15;40.10;;;8.07;;
11394;SDS011;5753;54.402;10.220;2024-02-26T07:09:46;60.30;;;9.75;;
11394;SDS011;5753;54.402;10.220;2024-02-26T07:12:18;71.53;;;10.27;;
11394;SDS011;5753;54.402;10.220;2024-02-26T07:14:47;57.22;;;9.48;;
11394;SDS011;5753;54.402;10.220;2024-02-26T07:17:16;55.53;;;9.80;;
11394;SDS011;5753;54.402;10.220;2024-02-26T07:19:42;39.53;;;7.03;;
11394;SDS011;5753;54.402;10.220;2024-02-26T07:22:09;51.85;;;8.35;;
11394;SDS011;5753;54.402;10.220;2024-02-26T07:24:35;43.17;;;9.30;;
11394;SDS011;5753;54.402;10.220;2024-02-26T07:27:01;68.80;;;9.02;;
11394;SDS011;5753;54.402;10.220;2024-02-26T07:29:30;35.78;;;7.32;;
11394;SDS011;5753;54.402;10.220;2024-02-26T07:31:58;32.40;;;7.15;;
11394;SDS011;5753;54.402;10.220;2024-02-26T07:34:27;45.17;;;10.50;;
11394;SDS011;5753;54.402;10.220;2024-02-26T07:36:57;38.85;;;8.55;;
11394;SDS011;5753;54.402;10.220;2024-02-26T07:39:23;31.27;;;8.38;;
11394;SDS011;5753;54.402;10.220;2024-02-26T07:41:51;53.92;;;10.90;;
11394;SDS011;5753;54.402;10.220;2024-02-26T07:44:19;52.20;;;9.32;;
11394;SDS011;5753;54.402;10.220;2024-02-26T07:46:46;43.45;;;7.15;;
11394;SDS011;5753;54.402;10.220;2024-02-26T07:49:16;15.88;;;8.02;;
11394;SDS011;5753;54.402;10.220;2024-02-26T07:51:42;31.08;;;8.20;;
11394;SDS011;5753;54.402;10.220;2024-02-26T07:54:12;57.78;;;10.35;;
11394;SDS011;5753;54.402;10.220;2024-02-26T07:56:39;38.75;;;10.27;;
11394;SDS011;5753;54.402;10.220;2024-02-26T07:59:07;51.38;;;11.45;;
11394;SDS011;5753;54.402;10.220;2024-02-26T08:01:35;39.33;;;9.50;;
11394;SDS011;5753;54.402;10.220;2024-02-26T08:04:05;46.17;;;12.57;;
11394;SDS011;5753;54.402;10.220;2024-02-26T08:06:33;44.45;;;10.30;;
11394;SDS011;5753;54.402;10.220;2024-02-26T08:09:01;25.50;;;6.05;;
11394;SDS011;5753;54.402;10.220;2024-02-26T08:11:30;41.08;;;10.43;;
11394;SDS011;5753;54.402;10.220;2024-02-26T08:13:58;61.38;;;10.60;;
11394;SDS011;5753;54.402;10.220;2024-02-26T08:16:27;39.40;;;9.75;;
11394;SDS011;5753;54.402;10.220;2024-02-26T08:18:54;46.40;;;9.32;;
11394;SDS011;5753;54.402;10.220;2024-02-26T08:21:22;74.80;;;10.23;;
11394;SDS011;5753;54.402;10.220;2024-02-26T08:23:49;141.02;;;59.53;;
11394;SDS011;5753;54.402;10.220;2024-02-26T08:26:17;131.45;;;72.50;;
11394;SDS011;5753;54.402;10.220;2024-02-26T08:28:46;40.88;;;29.02;;
11394;SDS011;5753;54.402;10.220;2024-02-26T08:31:15;41.83;;;16.92;;
11394;SDS011;5753;54.402;10.220;2024-02-26T08:33:44;59.72;;;22.23;;
11394;SDS011;5753;54.402;10.220;2024-02-26T08:36:12;59.47;;;19.30;;
11394;SDS011;5753;54.402;10.220;2024-02-26T08:38:40;76.25;;;13.30;;
11394;SDS011;5753;54.402;10.220;2024-02-26T08:41:08;70.47;;;8.73;;
11394;SDS011;5753;54.402;10.220;2024-02-26T08:43:35;40.45;;;12.98;;
11394;SDS011;5753;54.402;10.220;2024-02-26T08:46:01;53.22;;;14.30;;
11394;SDS011;5753;54.402;10.220;2024-02-26T08:48:30;51.35;;;9.68;;
11394;SDS011;5753;54.402;10.220;2024-02-26T08:50:57;63.38;;;13.90;;
11394;SDS011;5753;54.402;10.220;2024-02-26T08:53:24;61.25;;;12.13;;
11394;SDS011;5753;54.402;10.220;2024-02-26T08:55:52;50.33;;;11.13;;
11394;SDS011;5753;54.402;10.220;2024-02-26T08:58:18;33.20;;;13.68;;
11394;SDS011;5753;54.402;10.220;2024-02-26T09:00:49;30.73;;;9.73;;
11394;SDS011;5753;54.402;10.220;2024-02-26T09:03:18;28.65;;;9.55;;
11394;SDS011;5753;54.402;10.220;2024-02-26T09:05:46;64.88;;;12.95;;
11394;SDS011;5753;54.402;10.220;2024-02-26T09:08:13;94.18;;;14.95;;
11394;SDS011;5753;54.402;10.220;2024-02-26T09:10:41;81.75;;;15.73;;
11394;SDS011;5753;54.402;10.220;2024-02-26T09:13:08;119.00;;;16.73;;
11394;SDS011;5753;54.402;10.220;2024-02-26T09:15:36;60.80;;;16.45;;
11394;SDS011;5753;54.402;10.220;2024-02-26T09:18:02;51.38;;;21.55;;
11394;SDS011;5753;54.402;10.220;2024-02-26T09:20:30;32.15;;;14.43;;
11394;SDS011;5753;54.402;10.220;2024-02-26T09:22:56;71.90;;;14.68;;
11394;SDS011;5753;54.402;10.220;2024-02-26T09:25:24;36.80;;;13.48;;
11394;SDS011;5753;54.402;10.220;2024-02-26T09:27:51;62.15;;;12.93;;
11394;SDS011;5753;54.402;10.220;2024-02-26T09:30:19;37.08;;;9.25;;
11394;SDS011;5753;54.402;10.220;2024-02-26T09:32:46;31.83;;;8.63;;
11394;SDS011;5753;54.402;10.220;2024-02-26T09:35:15;52.38;;;10.18;;
11394;SDS011;5753;54.402;10.220;2024-02-26T09:37:43;19.08;;;5.70;;
11394;SDS011;5753;54.402;10.220;2024-02-26T09:40:11;39.13;;;8.40;;
11394;SDS011;5753;54.402;10.220;2024-02-26T09:42:41;52.35;;;13.50;;
11394;SDS011;5753;54.402;10.220;2024-02-26T09:45:17;24.23;;;11.57;;
11394;SDS011;5753;54.402;10.220;2024-02-26T09:47:48;34.50;;;13.60;;
11394;SDS011;5753;54.402;10.220;2024-02-26T09:50:19;72.45;;;14.65;;
11394;SDS011;5753;54.402;10.220;2024-02-26T09:52:48;36.20;;;10.48;;
11394;SDS011;5753;54.402;10.220;2024-02-26T09:55:16;72.60;;;11.80;;
11394;SDS011;5753;54.402;10.220;2024-02-26T09:57:51;53.55;;;11.55;;
11394;SDS011;5753;54.402;10.220;2024-02-26T10:00:20;69.45;;;11.27;;
11394;SDS011;5753;54.402;10.220;2024-02-26T10:02:48;60.90;;;11.48;;
11394;SDS011;5753;54.402;10.220;2024-02-26T10:05:18;102.65;;;15.18;;
11394;SDS011;5753;54.402;10.220;2024-02-26T10:07:46;68.40;;;13.43;;
11394;SDS011;5753;54.402;10.220;2024-02-26T10:10:15;128.68;;;16.23;;
11394;SDS011;5753;54.402;10.220;2024-02-26T10:12:42;66.03;;;14.73;;
11394;SDS011;5753;54.402;10.220;2024-02-26T10:15:10;104.65;;;14.45;;
11394;SDS011;5753;54.402;10.220;2024-02-26T10:17:38;97.50;;;14.07;;
11394;SDS011;5753;54.402;10.220;2024-02-26T10:20:12;74.40;;;13.88;;
11394;SDS011;5753;54.402;10.220;2024-02-26T10:22:53;29.52;;;7.47;;
11394;SDS011;5753;54.402;10.220;2024-02-26T10:25:20;30.02;;;10.10;;
11394;SDS011;5753;54.402;10.220;2024-02-26T10:27:48;67.32;;;11.77;;
11394;SDS011;5753;54.402;10.220;2024-02-26T10:30:22;95.50;;;37.60;;
11394;SDS011;5753;54.402;10.220;2024-02-26T10:32:51;65.45;;;25.20;;
11394;SDS011;5753;54.402;10.220;2024-02-26T10:35:20;43.42;;;11.93;;
11394;SDS011;5753;54.402;10.220;2024-02-26T10:37:47;43.88;;;16.35;;
11394;SDS011;5753;54.402;10.220;2024-02-26T10:40:17;25.42;;;13.50;;
11394;SDS011;5753;54.402;10.220;2024-02-26T10:42:45;24.42;;;11.05;;
11394;SDS011;5753;54.402;10.220;2024-02-26T10:45:12;26.92;;;14.25;;
11394;SDS011;5753;54.402;10.220;2024-02-26T10:47:41;24.83;;;15.32;;
11394;SDS011;5753;54.402;10.220;2024-02-26T10:50:08;32.47;;;26.63;;
11394;SDS011;5753;54.402;10.220;2024-02-26T10:52:39;20.50;;;13.82;;
11394;SDS011;5753;54.402;10.220;2024-02-26T10:55:10;19.80;;;12.70;;
11394;SDS011;5753;54.402;10.220;2024-02-26T10:57:48;167.77;;;103.15;;
11394;SDS011;5753;54.402;10.220;2024-02-26T11:00:19;23.52;;;16.75;;
11394;SDS011;5753;54.402;10.220;2024-02-26T11:02:47;34.38;;;30.58;;
11394;SDS011;5753;54.402;10.220;2024-02-26T11:05:16;111.50;;;99.72;;
11394;SDS011;5753;54.402;10.220;2024-02-26T11:07:43;31.00;;;22.55;;
11394;SDS011;5753;54.402;10.220;2024-02-26T11:10:12;11.50;;;8.10;;
11394;SDS011;5753;54.402;10.220;2024-02-26T11:12:40;15.57;;;12.02;;
11394;SDS011;5753;54.402;10.220;2024-02-26T11:15:10;13.18;;;9.45;;
11394;SDS011;5753;54.402;10.220;2024-02-26T11:17:38;19.23;;;12.20;;
11394;SDS011;5753;54.402;10.220;2024-02-26T11:20:10;18.90;;;9.88;;
11394;SDS011;5753;54.402;10.220;2024-02-26T11:22:42;15.07;;;12.52;;
11394;SDS011;5753;54.402;10.220;2024-02-26T11:25:10;18.42;;;13.20;;
11394;SDS011;5753;54.402;10.220;2024-02-26T11:27:47;13.05;;;10.65;;
11394;SDS011;5753;54.402;10.220;2024-02-26T11:30:29;16.10;;;12.75;;
11394;SDS011;5753;54.402;10.220;2024-02-26T11:33:07;17.00;;;12.45;;
11394;SDS011;5753;54.402;10.220;2024-02-26T11:35:36;14.52;;;8.68;;
11394;SDS011;5753;54.402;10.220;2024-02-26T11:38:03;14.23;;;10.68;;
11394;SDS011;5753;54.402;10.220;2024-02-26T11:40:39;15.10;;;10.43;;
11394;SDS011;5753;54.402;10.220;2024-02-26T11:43:09;9.65;;;8.35;;
11394;SDS011;5753;54.402;10.220;2024-02-26T11:48:33;13.90;;;9.82;;
11394;SDS011;5753;54.402;10.220;2024-02-26T11:50:59;11.35;;;10.13;;
11394;SDS011;5753;54.402;10.220;2024-02-26T11:53:28;11.32;;;8.02;;
11394;SDS011;5753;54.402;10.220;2024-02-26T11:59:09;11.43;;;8.50;;
11394;SDS011;5753;54.402;10.220;2024-02-26T12:02:02;11.05;;;7.45;;
11394;SDS011;5753;54.402;10.220;2024-02-26T12:04:30;13.88;;;9.05;;
11394;SDS011;5753;54.402;10.220;2024-02-26T12:07:03;10.75;;;8.32;;
11394;SDS011;5753;54.402;10.220;2024-02-26T12:12:10;10.07;;;6.75;;
11394;SDS011;5753;54.402;10.220;2024-02-26T12:15:00;10.75;;;8.57;;
11394;SDS011;5753;54.402;10.220;2024-02-26T12:17:29;9.73;;;7.53;;
11394;SDS011;5753;54.402;10.220;2024-02-26T12:20:07;8.30;;;6.57;;
11394;SDS011;5753;54.402;10.220;2024-02-26T12:22:35;8.10;;;7.30;;
11394;SDS011;5753;54.402;10.220;2024-02-26T12:25:06;5.82;;;5.10;;
11394;SDS011;5753;54.402;10.220;2024-02-26T12:27:34;7.93;;;5.00;;
11394;SDS011;5753;54.402;10.220;2024-02-26T12:30:04;9.35;;;7.20;;
11394;SDS011;5753;54.402;10.220;2024-02-26T12:32:32;8.38;;;5.43;;
11394;SDS011;5753;54.402;10.220;2024-02-26T12:35:01;10.40;;;7.18;;
11394;SDS011;5753;54.402;10.220;2024-02-26T12:37:29;9.93;;;6.22;;
11394;SDS011;5753;54.402;10.220;2024-02-26T12:39:55;6.72;;;4.90;;
11394;SDS011;5753;54.402;10.220;2024-02-26T12:42:22;12.40;;;7.18;;
11394;SDS011;5753;54.402;10.220;2024-02-26T12:44:49;9.68;;;6.93;;
11394;SDS011;5753;54.402;10.220;2024-02-26T12:47:16;9.85;;;7.03;;
11394;SDS011;5753;54.402;10.220;2024-02-26T12:49:46;7.32;;;6.00;;
11394;SDS011;5753;54.402;10.220;2024-02-26T12:52:15;10.05;;;8.48;;
11394;SDS011;5753;54.402;10.220;2024-02-26T12:54:44;9.52;;;7.63;;
11394;SDS011;5753;54.402;10.220;2024-02-26T12:57:10;7.13;;;6.20;;
11394;SDS011;5753;54.402;10.220;2024-02-26T12:59:37;6.85;;;6.03;;
11394;SDS011;5753;54.402;10.220;2024-02-26T13:02:05;11.30;;;9.68;;
11394;SDS011;5753;54.402;10.220;2024-02-26T13:04:33;10.23;;;6.78;;
11394;SDS011;5753;54.402;10.220;2024-02-26T13:07:05;10.98;;;6.53;;
11394;SDS011;5753;54.402;10.220;2024-02-26T13:09:37;11.35;;;7.50;;
11394;SDS011;5753;54.402;10.220;2024-02-26T13:12:08;7.93;;;5.90;;
11394;SDS011;5753;54.402;10.220;2024-02-26T13:14:38;11.40;;;7.28;;
11394;SDS011;5753;54.402;10.220;2024-02-26T13:17:06;10.93;;;7.03;;
11394;SDS011;5753;54.402;10.220;2024-02-26T13:19:35;8.07;;;6.78;;
11394;SDS011;5753;54.402;10.220;2024-02-26T13:22:05;12.25;;;7.80;;
11394;SDS011;5753;54.402;10.220;2024-02-26T13:24:35;11.25;;;7.75;;
11394;SDS011;5753;54.402;10.220;2024-02-26T13:27:05;9.63;;;7.50;;
11394;SDS011;5753;54.402;10.220;2024-02-26T13:29:33;10.73;;;7.10;;
11394;SDS011;5753;54.402;10.220;2024-02-26T13:32:01;9.63;;;5.80;;
11394;SDS011;5753;54.402;10.220;2024-02-26T13:34:35;11.50;;;9.73;;
11394;SDS011;5753;54.402;10.220;2024-02-26T13:37:03;10.43;;;6.80;;
11394;SDS011;5753;54.402;10.220;2024-02-26T13:39:33;9.20;;;6.05;;
11394;SDS011;5753;54.402;10.220;2024-02-26T13:42:01;11.93;;;8.05;;
11394;SDS011;5753;54.402;10.220;2024-02-26T13:44:29;10.25;;;6.13;;
11394;SDS011;5753;54.402;10.220;2024-02-26T13:47:02;13.23;;;6.03;;
11394;SDS011;5753;54.402;10.220;2024-02-26T13:49:32;12.23;;;8.40;;
11394;SDS011;5753;54.402;10.220;2024-02-26T13:51:58;9.55;;;6.57;;
11394;SDS011;5753;54.402;10.220;2024-02-26T13:54:29;11.30;;;7.18;;
11394;SDS011;5753;54.402;10.220;2024-02-26T13:56:56;10.70;;;7.60;;
11394;SDS011;5753;54.402;10.220;2024-02-26T13:59:23;9.57;;;7.05;;
11394;SDS011;5753;54.402;10.220;2024-02-26T14:01:53;9.85;;;7.13;;
11394;SDS011;5753;54.402;10.220;2024-02-26T14:04:21;14.35;;;8.02;;
11394;SDS011;5753;54.402;10.220;2024-02-26T14:06:49;9.95;;;5.88;;
11394;SDS011;5753;54.402;10.220;2024-02-26T14:09:17;12.90;;;7.88;;
11394;SDS011;5753;54.402;10.220;2024-02-26T14:11:47;8.18;;;6.60;;
11394;SDS011;5753;54.402;10.220;2024-02-26T14:14:15;15.52;;;8.65;;
11394;SDS011;5753;54.402;10.220;2024-02-26T14:16:43;10.20;;;7.10;;
11394;SDS011;5753;54.402;10.220;2024-02-26T14:19:09;9.90;;;8.15;;
11394;SDS011;5753;54.402;10.220;2024-02-26T14:21:35;10.70;;;7.50;;
11394;SDS011;5753;54.402;10.220;2024-02-26T14:24:02;11.25;;;8.23;;
11394;SDS011;5753;54.402;10.220;2024-02-26T14:26:30;14.05;;;8.45;;
11394;SDS011;5753;54.402;10.220;2024-02-26T14:28:57;9.93;;;7.45;;
11394;SDS011;5753;54.402;10.220;2024-02-26T14:31:26;9.27;;;6.97;;
11394;SDS011;5753;54.402;10.220;2024-02-26T14:33:52;13.88;;;7.53;;
11394;SDS011;5753;54.402;10.220;2024-02-26T14:36:20;10.52;;;9.20;;
11394;SDS011;5753;54.402;10.220;2024-02-26T14:38:50;12.63;;;8.45;;
11394;SDS011;5753;54.402;10.220;2024-02-26T14:41:18;10.68;;;7.57;;
11394;SDS011;5753;54.402;10.220;2024-02-26T14:43:46;13.05;;;10.10;;
11394;SDS011;5753;54.402;10.220;2024-02-26T14:46:14;13.32;;;9.85;;